EGPE/INV METAR and TAF weather

Enter ICAO airport designator
Station Type Date Time Source
EGPE METAR 2019/08/21 22:20 UTC NOAA

EGPE 212220Z AUTO VRB03KT 9999 NCD 11/09 Q1012


Station Type Date Time Source
EGPE Decoded METAR 2019/08/21 22:20 UTC NOAA

Station name not available
Aug 21, 2019 - 06:20 PM EDT / 2019.08.21 2220 UTC
Wind: Variable at 3 MPH (3 KT):0
Visibility: greater than 7 mile(s):0
Temperature: 51 F (11 C)
Dew Point: 48 F (9 C)
Relative Humidity: 87%
Pressure (altimeter): 29.88 in. Hg (1012 hPa)
ob: EGPE 212220Z AUTO VRB03KT 9999 NCD 11/09 Q1012
cycle: 22

Station Type Date Time Source
EGPE TAF UTC NOAA

Error!

Example: see airport list